Time;durP1;ratioP1;P1;durP2;ratioP2;P2;SDS_P1;SDS_P2;PMS_P1;PMS_P2;Temp;Humidity;BMP_temperature;BMP_pressure;BME280_temperature;BME280_humidity;BME280_pressure;Samples;Min_cycle;Max_cycle;Signal;HPM_P1;HPM_P2
2023/12/28 00:01:59;;;;;;;2.73;2.40;;;;;;;12.11;32.26;97508.75;5064661;28;20285;-71
2023/12/28 00:04:24;;;;;;;3.60;2.60;;;;;;;12.14;32.13;97503.22;5080795;28;20468;-72
2023/12/28 00:06:50;;;;;;;2.20;2.00;;;;;;;12.15;32.14;97506.66;5063773;28;20599;-70
2023/12/28 00:09:15;;;;;;;3.27;2.70;;;;;;;12.22;32.46;97502.44;5075315;28;20251;-70
2023/12/28 00:11:41;;;;;;;3.30;2.27;;;;;;;12.25;32.31;97506.53;5080143;28;20236;-71
2023/12/28 00:14:06;;;;;;;2.77;2.00;;;;;;;12.27;32.07;97505.44;5076803;28;20204;-70
2023/12/28 00:16:32;;;;;;;3.83;2.53;;;;;;;12.34;32.05;97512.69;5061066;28;20607;-72
2023/12/28 00:18:58;;;;;;;2.50;2.30;;;;;;;12.34;32.16;97516.16;5068357;28;20261;-72
2023/12/28 00:21:23;;;;;;;2.33;2.13;;;;;;;12.35;32.03;97520.38;5069877;28;20753;-71
2023/12/28 00:23:49;;;;;;;2.93;2.47;;;;;;;12.46;32.37;97523.75;5052529;28;20198;-71
2023/12/28 00:26:14;;;;;;;4.60;2.50;;;;;;;12.38;32.13;97514.03;5083514;28;20350;-70
2023/12/28 00:28:40;;;;;;;2.40;2.20;;;;;;;12.44;32.13;97527.38;5079414;28;20175;-71
2023/12/28 00:31:05;;;;;;;3.47;2.70;;;;;;;12.44;32.30;97524.75;5083323;28;20197;-71
2023/12/28 00:33:30;;;;;;;3.13;2.00;;;;;;;12.37;32.12;97523.69;5078867;28;20756;-72
2023/12/28 00:35:56;;;;;;;4.33;2.47;;;;;;;12.35;32.43;97527.47;5082969;28;20719;-71
2023/12/28 00:38:21;;;;;;;2.43;2.17;;;;;;;12.34;32.28;97533.69;5084425;28;20509;-72
2023/12/28 00:40:47;;;;;;;2.33;2.00;;;;;;;12.31;32.21;97537.47;5073642;28;20174;-69
2023/12/28 00:43:12;;;;;;;2.30;2.10;;;;;;;12.36;32.33;97540.44;5070025;28;20199;-71
2023/12/28 00:45:38;;;;;;;2.70;2.27;;;;;;;12.41;32.31;97529.50;5045526;28;20210;-71
2023/12/28 00:48:03;;;;;;;2.07;1.93;;;;;;;12.42;32.14;97544.25;5080614;28;20181;-69
2023/12/28 00:50:31;;;;;;;2.47;2.00;;;;;;;12.42;32.42;97545.09;5069577;28;20702;-70
2023/12/28 00:52:56;;;;;;;2.50;2.30;;;;;;;12.44;32.40;97540.50;5074719;28;20321;-71
2023/12/28 00:55:22;;;;;;;3.97;2.10;;;;;;;12.46;32.69;97534.28;5079126;28;20904;-71
2023/12/28 00:57:47;;;;;;;2.67;2.23;;;;;;;12.44;32.52;97530.00;5075523;28;20183;-71
2023/12/28 01:00:13;;;;;;;2.27;2.00;;;;;;;12.46;32.37;97524.56;5078275;28;20289;-70
2023/12/28 01:02:38;;;;;;;3.60;2.53;;;;;;;12.34;32.32;97531.06;5069844;28;20214;-71
2023/12/28 01:05:04;;;;;;;2.53;2.13;;;;;;;12.28;32.93;97537.78;5081099;28;20257;-71
2023/12/28 01:07:29;;;;;;;2.90;2.30;;;;;;;12.25;32.62;97531.03;5071101;28;20186;-71
2023/12/28 01:09:55;;;;;;;2.77;2.37;;;;;;;12.21;32.86;97524.44;5074322;28;20178;-70
2023/12/28 01:12:20;;;;;;;4.30;2.40;;;;;;;12.21;32.88;97523.63;5082339;28;20197;-70
2023/12/28 01:14:46;;;;;;;2.70;2.03;;;;;;;12.19;32.64;97536.09;5061990;28;20558;-72
2023/12/28 01:17:18;;;;;;;3.43;2.33;;;;;;;12.18;33.16;97539.69;5066043;28;20195;-73
2023/12/28 01:19:44;;;;;;;2.50;2.23;;;;;;;12.20;32.88;97533.28;5049494;28;20860;-72
2023/12/28 01:22:10;;;;;;;2.70;2.23;;;;;;;12.17;33.14;97541.47;5071868;28;20468;-70
2023/12/28 01:24:35;;;;;;;3.57;2.10;;;;;;;12.14;33.32;97539.19;5072149;28;20178;-71
2023/12/28 01:27:00;;;;;;;3.00;2.50;;;;;;;12.22;33.22;97546.28;5079730;28;20593;-70
2023/12/28 01:29:26;;;;;;;3.43;2.80;;;;;;;12.23;33.15;97545.28;5083958;28;20237;-72
2023/12/28 01:31:51;;;;;;;3.30;2.90;;;;;;;12.26;33.26;97547.63;5085455;28;20351;-73
2023/12/28 01:34:17;;;;;;;3.27;2.53;;;;;;;12.26;33.02;97544.97;5074009;28;20262;-70
2023/12/28 01:36:44;;;;;;;2.90;2.50;;;;;;;12.19;33.16;97542.16;5081984;28;20174;-70
2023/12/28 01:39:10;;;;;;;3.10;2.50;;;;;;;12.16;33.14;97539.00;5074366;28;20177;-72
2023/12/28 01:41:36;;;;;;;3.10;2.50;;;;;;;12.16;33.54;97544.25;5085581;28;20408;-72
2023/12/28 01:44:02;;;;;;;2.90;2.40;;;;;;;12.11;33.33;97540.28;5084647;28;20423;-70
2023/12/28 01:46:27;;;;;;;2.67;2.47;;;;;;;12.18;33.61;97561.53;5086397;28;20227;-70
2023/12/28 01:48:53;;;;;;;3.20;2.70;;;;;;;12.14;33.13;97576.78;5079409;28;20179;-71
2023/12/28 01:51:19;;;;;;;3.70;2.47;;;;;;;12.18;33.72;97576.47;5058483;28;20693;-72
2023/12/28 01:53:45;;;;;;;3.30;2.60;;;;;;;12.22;33.80;97572.56;5056149;28;20206;-71
2023/12/28 01:56:10;;;;;;;2.77;2.30;;;;;;;12.18;33.25;97572.03;5058291;28;20178;-71
2023/12/28 01:58:38;;;;;;;5.33;2.70;;;;;;;12.20;33.31;97569.25;5059263;28;20423;-70
2023/12/28 02:01:03;;;;;;;5.60;2.27;;;;;;;12.18;33.94;97568.59;5076516;28;20214;-71
2023/12/28 02:03:29;;;;;;;3.63;2.40;;;;;;;12.22;33.90;97572.56;5082152;28;20956;-72
2023/12/28 02:05:55;;;;;;;2.63;2.33;;;;;;;12.20;33.67;97572.72;5067988;28;20459;-71
2023/12/28 02:08:20;;;;;;;2.40;2.20;;;;;;;12.12;33.45;97578.72;5076266;28;20190;-70
2023/12/28 02:10:46;;;;;;;2.40;2.20;;;;;;;12.10;33.74;97587.75;5075177;28;20184;-70
2023/12/28 02:13:11;;;;;;;4.40;2.57;;;;;;;12.16;33.59;97594.19;5061716;28;20694;-72
2023/12/28 02:15:37;;;;;;;4.70;3.13;;;;;;;12.17;34.05;97601.09;5082331;28;20179;-71
2023/12/28 02:18:13;;;;;;;2.43;2.20;;;;;;;12.18;33.77;97600.13;5037705;28;20179;-70
2023/12/28 02:20:39;;;;;;;4.70;3.10;;;;;;;12.18;33.87;97597.50;5059006;28;20186;-70
2023/12/28 02:23:05;;;;;;;2.43;2.23;;;;;;;12.17;33.97;97601.09;5073362;28;20436;-70
2023/12/28 02:25:31;;;;;;;2.67;2.47;;;;;;;12.09;34.31;97601.84;5058363;28;20456;-71
2023/12/28 02:27:57;;;;;;;3.40;2.50;;;;;;;12.10;33.60;97600.88;5063343;28;20883;-71
2023/12/28 02:30:23;;;;;;;2.60;2.30;;;;;;;12.10;33.79;97591.19;5070607;28;20224;-72
2023/12/28 02:33:07;;;;;;;3.23;2.30;;;;;;;11.96;33.89;97589.91;5079871;28;20198;-72
2023/12/28 02:35:45;;;;;;;1.97;1.87;;;;;;;11.86;34.50;97588.31;5079577;28;20189;-70
2023/12/28 02:38:13;;;;;;;2.53;2.33;;;;;;;11.81;34.35;97580.91;5060288;28;20478;-72
2023/12/28 02:40:40;;;;;;;2.67;2.47;;;;;;;11.80;34.55;97580.09;5069351;28;20421;-70
2023/12/28 02:43:06;;;;;;;2.80;2.50;;;;;;;11.62;34.57;97576.63;5053781;28;20448;-71
2023/12/28 02:45:32;;;;;;;2.90;2.40;;;;;;;11.64;34.79;97578.16;5070861;28;20432;-71
2023/12/28 02:47:57;;;;;;;3.87;2.43;;;;;;;11.58;34.78;97580.56;5050464;28;20419;-71
2023/12/28 02:50:23;;;;;;;3.70;2.30;;;;;;;11.56;34.86;97567.56;5083662;28;20177;-72
2023/12/28 02:52:48;;;;;;;2.10;1.97;;;;;;;11.64;34.96;97574.69;5077274;28;20245;-69
2023/12/28 02:55:14;;;;;;;4.10;2.37;;;;;;;11.72;34.71;97582.63;5082783;28;20213;-71
2023/12/28 02:57:40;;;;;;;5.60;2.33;;;;;;;11.82;34.55;97587.81;5079263;28;20178;-70
2023/12/28 03:00:07;;;;;;;5.60;2.73;;;;;;;11.84;34.22;97586.66;5071483;28;20179;-71
2023/12/28 03:02:32;;;;;;;3.03;2.73;;;;;;;11.92;34.22;97583.28;5082423;28;20444;-70
2023/12/28 03:04:58;;;;;;;3.83;2.53;;;;;;;11.92;34.10;97577.22;5073483;28;20416;-70
2023/12/28 03:07:23;;;;;;;3.33;2.30;;;;;;;11.82;34.45;97578.16;5082193;28;20284;-70
2023/12/28 03:09:49;;;;;;;2.87;1.90;;;;;;;11.83;34.72;97579.78;5050766;28;20255;-73
2023/12/28 03:12:16;;;;;;;2.93;2.33;;;;;;;11.84;34.63;97570.09;5072806;28;20226;-73
2023/12/28 03:14:41;;;;;;;2.80;2.50;;;;;;;11.86;34.45;97577.81;5072607;28;20200;-70
2023/12/28 03:17:07;;;;;;;4.00;2.70;;;;;;;11.89;34.40;97578.38;5075612;28;20440;-70
2023/12/28 03:19:32;;;;;;;2.27;2.07;;;;;;;11.87;34.19;97579.47;5071657;28;20201;-72
2023/12/28 03:21:58;;;;;;;4.37;2.30;;;;;;;11.72;34.60;97572.13;5075176;28;20771;-71
2023/12/28 03:24:23;;;;;;;2.27;1.97;;;;;;;11.75;34.87;97582.34;5077757;28;20170;-70
2023/12/28 03:26:48;;;;;;;3.07;1.93;;;;;;;11.74;34.81;97580.69;5070143;28;20269;-72
2023/12/28 03:29:14;;;;;;;2.50;2.10;;;;;;;11.67;34.77;97583.06;5076513;28;20178;-72
2023/12/28 03:31:40;;;;;;;2.47;2.20;;;;;;;11.65;34.91;97581.59;5078193;28;20185;-70
2023/12/28 03:34:06;;;;;;;3.50;2.20;;;;;;;11.65;35.01;97586.84;5067944;28;20213;-71
2023/12/28 03:36:31;;;;;;;3.20;2.07;;;;;;;11.65;34.94;97578.97;5077614;28;20189;-71
2023/12/28 03:38:57;;;;;;;3.50;2.00;;;;;;;11.62;34.84;97592.38;5082511;28;20511;-71
2023/12/28 03:41:22;;;;;;;3.10;2.27;;;;;;;11.67;35.14;97590.16;5065043;28;20170;-70
2023/12/28 03:43:48;;;;;;;2.20;2.00;;;;;;;11.74;34.78;97585.94;5059587;28;20262;-70
2023/12/28 03:46:14;;;;;;;3.00;2.30;;;;;;;11.75;35.05;97582.34;5078755;28;20198;-72
2023/12/28 03:48:39;;;;;;;3.93;1.90;;;;;;;11.78;34.41;97582.03;5083700;28;20186;-70
2023/12/28 03:51:05;;;;;;;2.80;2.00;;;;;;;11.68;34.94;97571.59;5071217;28;20628;-70
2023/12/28 03:53:31;;;;;;;2.97;2.10;;;;;;;11.60;34.95;97561.03;5062727;28;20211;-71
2023/12/28 03:55:59;;;;;;;2.60;1.80;;;;;;;11.58;34.88;97555.09;5081282;28;20182;-70
2023/12/28 03:58:25;;;;;;;1.80;1.70;;;;;;;11.60;34.97;97557.56;5068285;28;20293;-71
2023/12/28 04:00:50;;;;;;;2.17;1.87;;;;;;;11.63;34.75;97563.38;5079710;28;20960;-71
2023/12/28 04:03:16;;;;;;;2.00;1.80;;;;;;;11.67;34.90;97550.75;5067476;28;20191;-73
2023/12/28 04:05:43;;;;;;;3.40;1.87;;;;;;;11.70;34.51;97550.47;5083627;28;20188;-70
2023/12/28 04:08:08;;;;;;;2.90;2.20;;;;;;;11.74;34.35;97549.16;5080769;28;20178;-73
2023/12/28 04:10:34;;;;;;;2.23;1.97;;;;;;;11.72;34.58;97548.50;5071148;28;20446;-71
2023/12/28 04:13:00;;;;;;;2.10;1.90;;;;;;;11.76;34.58;97549.03;5078596;28;20216;-71
2023/12/28 04:15:26;;;;;;;1.97;1.80;;;;;;;11.73;34.65;97544.88;5058900;28;20178;-71
2023/12/28 04:17:51;;;;;;;2.30;2.10;;;;;;;11.80;34.46;97545.13;5076207;28;20229;-73
2023/12/28 04:20:17;;;;;;;2.33;2.00;;;;;;;11.93;34.53;97552.63;5039505;28;20508;-73
2023/12/28 04:22:43;;;;;;;2.17;1.97;;;;;;;11.97;34.17;97557.41;5082677;28;20205;-71
2023/12/28 04:25:09;;;;;;;4.10;2.43;;;;;;;12.03;34.34;97563.88;5069788;28;20183;-71
2023/12/28 04:27:36;;;;;;;2.40;2.20;;;;;;;12.04;34.37;97556.81;5076636;28;20196;-71
2023/12/28 04:30:01;;;;;;;2.70;1.90;;;;;;;12.08;34.22;97551.13;5059965;28;20435;-71
2023/12/28 04:32:27;;;;;;;2.60;1.90;;;;;;;12.10;34.17;97545.72;5073642;28;21307;-71
2023/12/28 04:34:53;;;;;;;2.30;1.80;;;;;;;12.14;34.21;97547.06;5075589;28;20677;-72
2023/12/28 04:37:19;;;;;;;2.80;1.70;;;;;;;12.11;34.13;97544.72;5052608;28;20182;-72
2023/12/28 04:39:45;;;;;;;6.30;2.20;;;;;;;12.02;34.18;97551.72;5053488;28;20448;-72
2023/12/28 04:42:10;;;;;;;3.00;1.90;;;;;;;12.13;34.45;97546.22;5059869;28;20202;-72
2023/12/28 04:44:39;;;;;;;3.33;1.80;;;;;;;12.06;34.22;97542.56;5067929;28;20266;-71
2023/12/28 04:47:05;;;;;;;2.53;1.77;;;;;;;12.24;34.01;97545.16;5038142;28;20178;-72
2023/12/28 04:49:30;;;;;;;2.10;1.90;;;;;;;12.36;33.98;97535.19;5061653;28;20917;-74
2023/12/28 04:51:56;;;;;;;2.50;1.90;;;;;;;12.37;34.13;97531.56;5071983;28;20182;-71
2023/12/28 04:54:22;;;;;;;3.13;1.90;;;;;;;12.36;33.91;97535.19;5072450;28;20630;-70
2023/12/28 04:56:47;;;;;;;1.97;1.77;;;;;;;12.36;34.22;97529.94;5047952;28;20185;-72
2023/12/28 04:59:13;;;;;;;3.50;2.23;;;;;;;12.44;34.08;97524.75;5077054;28;20440;-73
2023/12/28 05:01:44;;;;;;;2.40;2.10;;;;;;;12.50;34.31;97532.97;5059596;28;20236;-72
2023/12/28 05:04:10;;;;;;;2.30;1.83;;;;;;;12.51;34.39;97534.63;5073928;28;20166;-73
2023/12/28 05:06:36;;;;;;;2.97;1.93;;;;;;;12.50;34.42;97538.22;5064181;28;20433;-70
2023/12/28 05:09:02;;;;;;;4.50;2.00;;;;;;;12.48;34.23;97537.53;5076852;28;20408;-74
2023/12/28 05:11:27;;;;;;;3.63;2.33;;;;;;;12.49;34.55;97540.03;5059667;28;20175;-71
2023/12/28 05:13:53;;;;;;;2.50;1.83;;;;;;;12.36;34.79;97543.06;5070985;28;20245;-72
2023/12/28 05:16:19;;;;;;;2.57;1.70;;;;;;;12.47;34.90;97538.56;5066597;28;20195;-72
2023/12/28 05:18:45;;;;;;;2.03;1.70;;;;;;;12.47;35.07;97539.38;5078364;28;20428;-72
2023/12/28 05:21:11;;;;;;;2.00;1.80;;;;;;;12.46;35.18;97536.91;5053521;28;20908;-72
2023/12/28 05:23:37;;;;;;;2.60;2.40;;;;;;;12.51;35.11;97543.34;5077101;28;20239;-72
2023/12/28 05:26:02;;;;;;;2.00;1.70;;;;;;;12.54;35.58;97545.63;5075854;28;20419;-73
2023/12/28 05:28:28;;;;;;;1.93;1.70;;;;;;;12.51;35.55;97545.13;5073851;28;20273;-75
2023/12/28 05:30:53;;;;;;;3.20;1.90;;;;;;;12.56;35.69;97534.97;5080417;28;20307;-73
2023/12/28 05:33:19;;;;;;;2.17;1.97;;;;;;;12.59;35.50;97542.56;5067835;28;20241;-70
2023/12/28 05:35:44;;;;;;;4.63;2.10;;;;;;;12.63;35.45;97554.38;5058766;28;20209;-72
2023/12/28 05:38:09;;;;;;;2.07;1.60;;;;;;;12.64;35.91;97555.22;5067786;28;20205;-70
2023/12/28 05:40:35;;;;;;;2.23;2.00;;;;;;;12.63;35.80;97557.03;5077454;28;20234;-74
2023/12/28 05:43:00;;;;;;;2.50;1.80;;;;;;;12.69;35.52;97563.47;5071038;28;20225;-70
2023/12/28 05:45:26;;;;;;;2.80;1.90;;;;;;;12.64;35.88;97561.31;5054532;28;20216;-71
2023/12/28 05:47:51;;;;;;;3.70;1.80;;;;;;;12.73;35.59;97565.63;5063716;28;20290;-71
2023/12/28 05:50:17;;;;;;;2.50;1.60;;;;;;;12.81;35.98;97569.28;5077259;28;20285;-70
2023/12/28 05:52:42;;;;;;;3.03;2.20;;;;;;;12.81;35.79;97579.81;5061945;28;20234;-72
2023/12/28 05:55:08;;;;;;;3.83;1.83;;;;;;;12.82;35.76;97578.81;5079433;28;20242;-71
2023/12/28 05:57:33;;;;;;;3.20;1.70;;;;;;;12.82;35.92;97581.44;5058121;28;20180;-70
2023/12/28 05:59:59;;;;;;;3.97;2.10;;;;;;;12.80;36.43;97583.41;5070344;28;20188;-70
2023/12/28 06:02:24;;;;;;;2.03;1.83;;;;;;;12.70;36.30;97591.41;5062752;28;20206;-71
2023/12/28 06:04:49;;;;;;;1.97;1.70;;;;;;;12.69;36.14;97581.88;5074975;28;20297;-71
2023/12/28 06:07:15;;;;;;;2.60;2.03;;;;;;;12.70;36.13;97588.78;5073803;28;20265;-69
2023/12/28 06:09:40;;;;;;;4.20;1.70;;;;;;;12.71;36.45;97583.38;5068952;28;20857;-70
2023/12/28 06:12:06;;;;;;;1.73;1.63;;;;;;;12.71;36.36;97588.63;5064108;28;20259;-71
2023/12/28 06:14:31;;;;;;;2.13;1.90;;;;;;;12.71;36.91;97593.06;5073092;28;20198;-70
2023/12/28 06:16:57;;;;;;;2.73;1.97;;;;;;;12.78;36.66;97601.16;5060757;28;20206;-71
2023/12/28 06:19:22;;;;;;;2.27;1.87;;;;;;;12.79;36.89;97605.44;5072200;28;20183;-74
2023/12/28 06:21:48;;;;;;;2.43;2.10;;;;;;;12.77;37.12;97610.84;5048627;28;20278;-71
2023/12/28 06:24:14;;;;;;;3.10;1.87;;;;;;;12.71;37.13;97620.19;5057056;28;20169;-70
2023/12/28 06:26:44;;;;;;;3.10;2.23;;;;;;;12.77;37.55;97617.91;5075232;28;20424;-72
2023/12/28 06:29:09;;;;;;;2.90;2.60;;;;;;;12.75;38.00;97615.44;5076594;28;20231;-73
2023/12/28 06:31:36;;;;;;;2.33;2.10;;;;;;;12.64;38.52;97613.09;5049099;28;20480;-71
2023/12/28 06:34:05;;;;;;;2.67;2.27;;;;;;;12.56;39.12;97619.13;5065601;28;20714;-73
2023/12/28 06:36:31;;;;;;;2.70;2.07;;;;;;;12.47;39.35;97615.59;5044414;28;20441;-72
2023/12/28 06:38:57;;;;;;;2.47;1.80;;;;;;;12.48;39.31;97608.53;5060137;28;20425;-71
2023/12/28 06:41:23;;;;;;;2.80;1.90;;;;;;;12.48;38.91;97603.25;5079878;28;20416;-70
2023/12/28 06:43:48;;;;;;;1.90;1.80;;;;;;;12.47;38.51;97606.91;5075057;28;20562;-71
2023/12/28 06:46:13;;;;;;;3.13;2.10;;;;;;;12.49;39.43;97625.94;5071792;28;20240;-73
2023/12/28 06:48:40;;;;;;;3.73;2.57;;;;;;;12.52;39.39;97634.38;5075979;28;20264;-71
2023/12/28 06:51:09;;;;;;;3.10;2.43;;;;;;;12.46;39.76;97632.34;5047712;28;20617;-72
2023/12/28 06:53:34;;;;;;;3.53;2.67;;;;;;;12.43;40.00;97633.50;5069154;28;20456;-73
2023/12/28 06:56:00;;;;;;;9.50;3.60;;;;;;;12.35;39.82;97628.16;5068657;28;20777;-71
2023/12/28 06:58:25;;;;;;;6.60;3.00;;;;;;;12.38;39.67;97630.47;5061242;28;20190;-73
2023/12/28 07:00:51;;;;;;;4.97;3.30;;;;;;;12.36;39.67;97626.38;5073209;28;20178;-72
2023/12/28 07:03:16;;;;;;;4.83;3.03;;;;;;;12.37;39.63;97628.03;5066976;28;20264;-72
2023/12/28 07:05:42;;;;;;;3.37;3.03;;;;;;;12.44;39.67;97643.03;5068392;28;20544;-70
2023/12/28 07:08:08;;;;;;;4.00;3.20;;;;;;;12.56;39.39;97629.63;5066428;28;20192;-71
2023/12/28 07:10:33;;;;;;;3.27;2.97;;;;;;;12.64;39.24;97624.41;5075463;28;20216;-73
2023/12/28 07:12:58;;;;;;;4.23;3.30;;;;;;;12.65;40.00;97631.31;5063442;28;20206;-72
2023/12/28 07:15:25;;;;;;;5.50;3.90;;;;;;;12.65;40.29;97625.25;5074114;28;20655;-73
2023/12/28 07:17:50;;;;;;;5.17;3.93;;;;;;;12.53;40.83;97632.56;5065572;28;20202;-70
2023/12/28 07:20:16;;;;;;;6.63;3.83;;;;;;;12.63;40.59;97632.47;5060361;28;20424;-71
2023/12/28 07:22:41;;;;;;;5.30;3.37;;;;;;;12.65;40.27;97631.31;5073974;28;20582;-73
2023/12/28 07:25:07;;;;;;;5.50;3.60;;;;;;;12.62;40.40;97649.22;5075233;28;20283;-71
2023/12/28 07:27:33;;;;;;;4.50;3.87;;;;;;;12.54;41.27;97645.53;5073540;28;20182;-73
2023/12/28 07:29:59;;;;;;;7.20;3.50;;;;;;;12.61;41.13;97645.75;5082709;28;20213;-72
2023/12/28 07:32:27;;;;;;;3.20;2.90;;;;;;;12.51;41.40;97647.66;5084248;28;20437;-73
2023/12/28 07:34:53;;;;;;;4.60;3.23;;;;;;;12.51;41.12;97650.28;5072466;28;20178;-72
2023/12/28 07:37:19;;;;;;;5.33;3.30;;;;;;;12.52;40.97;97652.78;5082411;28;20425;-73
2023/12/28 07:39:44;;;;;;;8.63;4.50;;;;;;;12.61;41.36;97653.63;5094485;28;20420;-71
2023/12/28 07:42:09;;;;;;;5.03;3.60;;;;;;;12.66;41.31;97654.00;5084118;28;20210;-71
2023/12/28 07:44:35;;;;;;;4.70;3.20;;;;;;;12.65;41.27;97651.53;5069691;28;20571;-72
2023/12/28 07:47:00;;;;;;;6.07;4.50;;;;;;;12.72;41.77;97650.78;5053594;28;20192;-72
2023/12/28 07:49:26;;;;;;;9.17;4.63;;;;;;;12.73;41.77;97648.97;5075954;28;20223;-72
2023/12/28 07:51:51;;;;;;;4.47;3.53;;;;;;;12.84;41.81;97650.50;5074972;28;20302;-72
2023/12/28 07:54:17;;;;;;;8.20;3.90;;;;;;;12.83;41.45;97654.13;5051055;28;20209;-72
2023/12/28 07:56:42;;;;;;;5.47;3.70;;;;;;;12.85;41.59;97654.78;5051563;28;20193;-71
2023/12/28 07:59:09;;;;;;;3.60;3.20;;;;;;;12.88;41.62;97664.97;5074610;28;20258;-73
2023/12/28 08:01:35;;;;;;;4.10;3.23;;;;;;;12.92;41.81;97668.97;5066972;28;20217;-71
2023/12/28 08:04:01;;;;;;;7.20;4.37;;;;;;;12.96;42.54;97670.31;5071088;28;20523;-71
2023/12/28 08:06:29;;;;;;;7.50;5.07;;;;;;;12.90;41.98;97671.75;5058931;28;20421;-73
2023/12/28 08:08:54;;;;;;;10.03;6.23;;;;;;;13.01;42.57;97668.00;5065912;28;20982;-72
2023/12/28 08:11:20;;;;;;;10.50;6.80;;;;;;;13.05;42.35;97669.38;5068165;28;20409;-72
2023/12/28 08:13:46;;;;;;;9.80;5.83;;;;;;;13.09;42.33;97669.06;5065386;28;20198;-71
2023/12/28 08:16:12;;;;;;;9.27;6.33;;;;;;;13.11;42.24;97672.34;5063653;28;20262;-73
2023/12/28 08:18:37;;;;;;;15.13;5.83;;;;;;;13.10;41.77;97681.22;5057482;28;20937;-72
2023/12/28 08:21:03;;;;;;;7.17;5.10;;;;;;;13.07;42.20;97687.63;5074977;28;20262;-73
2023/12/28 08:23:28;;;;;;;5.43;4.20;;;;;;;13.02;41.25;97689.91;5071372;28;20203;-70
2023/12/28 08:25:53;;;;;;;15.40;9.80;;;;;;;12.85;41.96;97675.84;5060504;28;20182;-72
2023/12/28 08:28:19;;;;;;;26.63;15.43;;;;;;;12.88;42.74;97672.88;5074281;28;20261;-71
2023/12/28 08:30:44;;;;;;;27.67;18.03;;;;;;;12.93;42.84;97669.78;5055935;28;20282;-71
2023/12/28 08:33:10;;;;;;;24.23;14.97;;;;;;;13.02;42.96;97674.94;5081310;28;20728;-72
2023/12/28 08:35:35;;;;;;;22.73;14.27;;;;;;;13.09;42.88;97683.03;5086689;28;20181;-72
2023/12/28 08:38:01;;;;;;;16.40;10.07;;;;;;;13.17;42.66;97680.44;5057404;28;20186;-74
2023/12/28 08:40:26;;;;;;;22.03;12.97;;;;;;;13.18;43.65;97682.06;5079961;28;20194;-73
2023/12/28 08:42:52;;;;;;;20.60;12.83;;;;;;;13.23;43.15;97686.91;5051310;28;20225;-70
2023/12/28 08:45:17;;;;;;;12.07;9.10;;;;;;;13.28;42.81;97696.94;5077531;28;20206;-71
2023/12/28 08:47:42;;;;;;;12.53;8.47;;;;;;;13.30;43.46;97693.16;5069576;28;20261;-70
2023/12/28 08:50:09;;;;;;;7.80;5.60;;;;;;;13.33;43.34;97695.50;5081797;28;20269;-75
2023/12/28 08:52:34;;;;;;;8.30;5.83;;;;;;;13.32;43.06;97690.38;5070034;28;20239;-70
2023/12/28 08:55:01;;;;;;;9.80;5.97;;;;;;;13.27;42.49;97688.22;5079811;28;20452;-72
2023/12/28 08:57:26;;;;;;;7.03;4.80;;;;;;;13.25;42.37;97687.53;5078008;28;20211;-71
2023/12/28 08:59:51;;;;;;;6.60;5.30;;;;;;;13.24;42.80;97693.78;5076402;28;20507;-75
2023/12/28 09:02:17;;;;;;;7.20;4.57;;;;;;;13.23;42.66;97675.53;5077925;28;20638;-71
2023/12/28 09:04:42;;;;;;;6.63;5.40;;;;;;;13.19;42.94;97669.75;5084049;28;20190;-72
2023/12/28 09:07:09;;;;;;;11.10;7.13;;;;;;;13.16;43.16;97675.31;5080057;28;20273;-71
2023/12/28 09:09:35;;;;;;;9.50;7.60;;;;;;;13.18;42.89;97673.38;5080621;28;20182;-72
2023/12/28 09:12:00;;;;;;;5.90;4.47;;;;;;;13.26;42.82;97677.84;5032980;28;20444;-72
2023/12/28 09:14:26;;;;;;;9.63;5.47;;;;;;;13.26;42.72;97676.03;5075720;28;20201;-71
2023/12/28 09:16:51;;;;;;;8.60;5.37;;;;;;;13.31;42.97;97672.91;5068213;28;20194;-72
2023/12/28 09:19:17;;;;;;;7.10;5.00;;;;;;;13.30;43.39;97679.16;5071626;28;20595;-71
2023/12/28 09:21:42;;;;;;;4.77;3.80;;;;;;;13.34;43.72;97677.88;5071286;28;20280;-71
2023/12/28 09:24:08;;;;;;;5.80;4.10;;;;;;;13.35;43.99;97684.78;5073327;28;20256;-70
2023/12/28 09:26:33;;;;;;;5.47;3.97;;;;;;;13.46;44.35;97684.53;5077456;28;20189;-72
2023/12/28 09:28:59;;;;;;;8.97;4.20;;;;;;;13.54;44.74;97694.28;5081774;28;20182;-71
2023/12/28 09:31:24;;;;;;;4.10;2.60;;;;;;;13.63;44.89;97697.78;5080418;28;20272;-71
2023/12/28 09:33:50;;;;;;;6.33;2.57;;;;;;;13.69;45.27;97702.38;5065059;28;20205;-70
2023/12/28 09:36:16;;;;;;;2.80;2.00;;;;;;;13.72;45.94;97696.00;5080623;28;20186;-70
2023/12/28 09:38:42;;;;;;;3.23;2.07;;;;;;;13.78;45.93;97698.81;5083259;28;20572;-72
2023/12/28 09:41:15;;;;;;;3.00;2.00;;;;;;;13.86;45.86;97695.34;5076229;28;20428;-73
2023/12/28 09:43:53;;;;;;;3.00;2.37;;;;;;;13.94;45.88;97711.19;5076364;28;20284;-73
2023/12/28 09:46:18;;;;;;;3.10;2.30;;;;;;;14.01;45.84;97707.91;5060841;28;20855;-72
2023/12/28 09:48:44;;;;;;;4.10;2.30;;;;;;;14.07;45.83;97715.97;5067666;28;20423;-72
2023/12/28 09:51:10;;;;;;;5.70;2.20;;;;;;;14.12;45.50;97705.78;5072786;28;20277;-72
2023/12/28 09:53:36;;;;;;;3.00;2.03;;;;;;;14.19;45.41;97705.13;5081286;28;20244;-70
2023/12/28 09:56:02;;;;;;;4.17;1.80;;;;;;;14.20;45.07;97704.97;5076127;28;20453;-72
2023/12/28 09:58:29;;;;;;;4.90;2.27;;;;;;;14.25;44.55;97701.84;5051882;28;20190;-73
2023/12/28 10:00:56;;;;;;;2.70;2.03;;;;;;;14.32;44.60;97707.28;5075960;28;20766;-72
2023/12/28 10:03:22;;;;;;;5.50;2.67;;;;;;;14.35;43.98;97706.97;5073930;28;20504;-72
2023/12/28 10:05:47;;;;;;;3.23;2.33;;;;;;;14.36;44.20;97706.78;5084043;28;20424;-71
2023/12/28 10:08:13;;;;;;;4.30;1.93;;;;;;;14.10;43.37;97712.22;5068377;28;20206;-72
2023/12/28 10:10:40;;;;;;;2.83;1.77;;;;;;;14.23;43.06;97712.56;5079044;28;20179;-71
2023/12/28 10:13:09;;;;;;;3.23;2.17;;;;;;;14.25;43.15;97707.94;5079853;28;20452;-70
2023/12/28 10:15:38;;;;;;;3.10;2.37;;;;;;;14.26;43.00;97704.31;5074710;28;20424;-71
2023/12/28 10:18:04;;;;;;;4.20;2.07;;;;;;;14.26;43.12;97706.13;5079614;28;21256;-73
2023/12/28 10:20:30;;;;;;;3.50;2.10;;;;;;;14.31;43.17;97697.72;5051166;28;20424;-72
2023/12/28 10:22:56;;;;;;;6.00;2.00;;;;;;;14.22;43.26;97703.00;5074508;28;20443;-72
2023/12/28 10:25:22;;;;;;;2.80;2.30;;;;;;;14.25;43.45;97696.56;5050713;28;20431;-72
2023/12/28 10:27:51;;;;;;;2.93;2.20;;;;;;;14.30;43.20;97694.28;5086004;28;20510;-73
2023/12/28 10:30:17;;;;;;;2.33;1.93;;;;;;;14.32;43.23;97687.00;5068636;28;20179;-71
2023/12/28 10:32:42;;;;;;;3.90;2.00;;;;;;;14.33;43.54;97687.84;5071753;28;20680;-71
2023/12/28 10:35:08;;;;;;;1.90;1.70;;;;;;;14.35;43.30;97691.16;5084016;28;20252;-72
2023/12/28 10:37:35;;;;;;;2.80;2.30;;;;;;;14.34;43.47;97692.13;5071873;28;20190;-70
2023/12/28 10:40:06;;;;;;;1.73;1.63;;;;;;;14.38;43.63;97686.38;5068858;28;20273;-71
2023/12/28 10:42:32;;;;;;;3.30;1.93;;;;;;;14.35;43.75;97693.78;5064530;28;20823;-73
2023/12/28 10:45:10;;;;;;;2.97;1.83;;;;;;;14.36;44.06;97674.34;5081096;28;20894;-71
2023/12/28 10:47:43;;;;;;;4.67;1.70;;;;;;;14.50;44.04;97678.13;5066865;28;21074;-71
2023/12/28 10:50:10;;;;;;;4.43;1.80;;;;;;;14.54;44.35;97669.69;5059275;28;20968;-73
2023/12/28 10:52:37;;;;;;;4.83;2.30;;;;;;;14.65;44.42;97667.72;5074116;28;20445;-71
2023/12/28 10:55:37;;;;;;;2.40;2.00;;;;;;;14.67;45.13;97666.59;5075430;28;20429;-73
2023/12/28 10:58:19;;;;;;;2.43;2.00;;;;;;;14.68;45.21;97670.88;5060576;28;20421;-72
2023/12/28 11:00:57;;;;;;;2.03;1.83;;;;;;;14.77;45.24;97669.03;5060096;28;20558;-71
2023/12/28 11:03:28;;;;;;;1.80;1.70;;;;;;;14.79;45.38;97664.44;5042911;28;21148;-70
2023/12/28 11:05:55;;;;;;;1.97;1.57;;;;;;;14.84;45.31;97659.47;5049711;28;20901;-71
2023/12/28 11:08:20;;;;;;;3.33;1.70;;;;;;;14.85;45.33;97661.13;5055152;28;20474;-71
2023/12/28 11:10:48;;;;;;;2.33;1.50;;;;;;;14.89;45.42;97651.06;5083528;28;20419;-71
2023/12/28 11:13:15;;;;;;;3.87;1.70;;;;;;;14.87;45.56;97648.56;5050908;28;20213;-72
2023/12/28 11:15:41;;;;;;;3.30;1.53;;;;;;;14.90;45.54;97650.06;5047012;28;20415;-71
2023/12/28 11:18:06;;;;;;;1.90;1.60;;;;;;;14.93;45.85;97651.53;5077197;28;20774;-71
2023/12/28 11:20:32;;;;;;;2.83;1.97;;;;;;;14.97;45.95;97658.13;5067929;28;20480;-72
2023/12/28 11:22:58;;;;;;;3.53;1.37;;;;;;;14.97;45.99;97648.38;5064539;28;20685;-71
2023/12/28 11:25:23;;;;;;;2.07;1.27;;;;;;;14.99;46.19;97645.59;5063082;28;20428;-70
2023/12/28 11:27:49;;;;;;;3.10;1.83;;;;;;;14.96;46.36;97640.66;5080561;28;20654;-72